الصفحة الرئيسية
METAR-TAF:

METAR-TAF

مطار :

Touho, نيو كاليدونيا

دائرة عرض: 20-47-25S, خط طول: 165-15-34E, ارتفاع: 3 متر

METAR: مفقودة

زمن: 07:42 (20:42 UTC)

توقعات

تاريخ ووقت الإصدار 3ساعات و 42 دقيقة قبل الساعة 17:00UTC
التوقعات صالحة من29 الساعة 18 UTC إلى 30 الساعة 18 UTC
ريح 2 عقدةمن اتجاهات متغيرة
الرؤية 10 كم أو أكثر
غيوم مفككة على ارتفاع 1600 قدم
غيوم مفككة على ارتفاع 4000 قدم
مؤقت
من 29 الساعة 18 UTC إلى 30 الساعة 03 UTC
الرؤية: 4000 متر
غيوم مفككة على ارتفاع 1400 قدم
غيوم قليلة على ارتفاع 2000 قدم, مزن ركامية عمودية.
زخات من المطر
مؤقت
من 30 الساعة 03 UTC إلى 30 الساعة 18 UTC
الرؤية: 4000 متر
غيوم مفككة على ارتفاع 1200 قدم
غيوم قليلة على ارتفاع 2000 قدم, مزنة ركامية.
زخات من المطر
نظرية الاحتمالات 40% :
مؤقت
من 30 الساعة 08 UTC إلى 30 الساعة 18 UTC
الرؤية: 1500 متر
غيوم مفككة على ارتفاع 800 قدم
غيوم متفرقة على ارتفاع 1600 قدم, مزنة ركامية.
عاصفة رعدية, مطر غزير

TAF: NWWU 291700Z 2918/3018 VRB02KT 9999 BKN016 BKN040 TEMPO 2918/3003 4000 SHRA BKN014 FEW020TCU TEMPO 3003/3018 4000 SHRA BKN012 FEW020CB PROB40 TEMPO 3008/3018 1500 +TSRA BKN008 SCT016CB

أرصاد الطقس والتوقعات من أكثر من 4000 مطار (تقارير الطقس للمطار METAR والتنبؤ بالطقس بالمطارTAF).

المحطات المتاحة هي النقط الصفراء والحمراء على الخريطة.

حرك المؤشر فوق النقطة لمعرفة اسم المحطة.

ثم انقر لمعرفة أرصاد وتوقعات الطقس.

لتغيير الخارطة: اضغط على الأزرار الخضراء مع رمز الصليب الأسود للتكبير. على الزر الأخضر مع شرطة للتصغير، أو على الأسهم الخضراء للخرائط المجاورة.


METAR-TAF: